Time;durP1;ratioP1;P1;durP2;ratioP2;P2;SDS_P1;SDS_P2;PMS_P1;PMS_P2;Temp;Humidity;BMP_temperature;BMP_pressure;BME280_temperature;BME280_humidity;BME280_pressure;Samples;Min_cycle;Max_cycle;Signal;HPM_P1;HPM_P2
2021/12/10 00:01:59;;;;;;;16.75;9.68;;;4.90;82.20;;;;;;5029108;28;20271;-75
2021/12/10 00:04:29;;;;;;;41.20;19.08;;;4.70;86.30;;;;;;5032425;28;20175;-74
2021/12/10 00:07:10;;;;;;;15.63;7.80;;;4.70;90.80;;;;;;5033537;28;20223;-73
2021/12/10 00:09:47;;;;;;;11.55;6.95;;;4.80;79.00;;;;;;5021935;28;20288;-74
2021/12/10 00:12:25;;;;;;;16.25;8.15;;;4.80;79.30;;;;;;5022605;28;20179;-74
2021/12/10 00:14:52;;;;;;;17.42;10.15;;;4.80;76.90;;;;;;5035497;28;20222;-73
2021/12/10 00:17:19;;;;;;;22.38;7.60;;;4.80;79.50;;;;;;5034001;28;20183;-75
2021/12/10 00:19:50;;;;;;;12.75;9.40;;;4.90;82.00;;;;;;5034462;28;20199;-72
2021/12/10 00:22:40;;;;;;;17.80;6.90;;;4.90;77.20;;;;;;5034014;28;20226;-72
2021/12/10 00:25:13;;;;;;;15.50;7.53;;;5.10;82.20;;;;;;5014746;28;20176;-72
2021/12/10 00:27:38;;;;;;;11.18;7.18;;;5.00;72.40;;;;;;5017305;28;20207;-72
2021/12/10 00:30:12;;;;;;;12.70;7.27;;;4.80;75.10;;;;;;5031718;28;20192;-72
2021/12/10 00:32:43;;;;;;;14.23;7.57;;;4.90;75.90;;;;;;5030921;28;20186;-72
2021/12/10 00:35:17;;;;;;;16.30;8.77;;;4.60;79.10;;;;;;5031743;28;20176;-72
2021/12/10 00:37:43;;;;;;;20.85;7.65;;;4.70;77.60;;;;;;5031049;28;20184;-72
2021/12/10 00:40:10;;;;;;;22.23;7.50;;;4.70;78.20;;;;;;5031889;28;20199;-72
2021/12/10 00:42:36;;;;;;;13.80;6.95;;;4.60;78.80;;;;;;5032137;28;20186;-72
2021/12/10 00:45:07;;;;;;;17.90;8.30;;;4.60;78.30;;;;;;5032201;28;20190;-71
2021/12/10 00:47:32;;;;;;;10.20;7.07;;;4.70;77.30;;;;;;5024066;28;20633;-71
2021/12/10 00:49:59;;;;;;;10.27;6.43;;;4.50;78.40;;;;;;5032050;28;20274;-70
2021/12/10 00:52:25;;;;;;;12.18;7.50;;;4.50;80.60;;;;;;5031560;28;20180;-70
2021/12/10 00:54:50;;;;;;;12.63;7.40;;;4.60;78.20;;;;;;5032272;28;20187;-71
2021/12/10 00:57:17;;;;;;;12.23;7.70;;;4.50;80.20;;;;;;5031792;28;20413;-72
2021/12/10 00:59:45;;;;;;;11.23;7.78;;;4.50;79.00;;;;;;5032086;28;20955;-72
2021/12/10 01:02:15;;;;;;;19.25;7.80;;;4.50;80.10;;;;;;5031971;28;20172;-70
2021/12/10 01:04:43;;;;;;;14.70;8.07;;;4.50;80.20;;;;;;5032086;28;20227;-71
2021/12/10 01:07:14;;;;;;;12.55;6.50;;;4.60;78.20;;;;;;5032005;28;20532;-72
2021/12/10 01:09:47;;;;;;;13.30;7.43;;;4.60;78.60;;;;;;5031909;28;20669;-73
2021/12/10 01:12:34;;;;;;;19.05;7.22;;;4.40;79.40;;;;;;5031990;28;20182;-72
2021/12/10 01:26:23;;;;;;;16.27;8.20;;;4.60;76.40;;;;;;5035891;28;20233;-71
2021/12/10 01:28:52;;;;;;;12.65;6.97;;;4.40;75.00;;;;;;5035207;28;20206;-72
2021/12/10 01:31:18;;;;;;;17.00;8.50;;;4.30;76.00;;;;;;5035297;28;20171;-71
2021/12/10 01:33:44;;;;;;;11.02;6.50;;;4.40;74.30;;;;;;5033989;28;20626;-71
2021/12/10 01:36:11;;;;;;;12.70;7.30;;;4.30;75.40;;;;;;5035453;28;20262;-72
2021/12/10 01:38:39;;;;;;;11.98;7.13;;;4.10;77.10;;;;;;5035064;28;20536;-72
2021/12/10 01:41:09;;;;;;;13.02;7.20;;;4.00;78.30;;;;;;5035466;28;20184;-72
2021/12/10 01:43:38;;;;;;;16.63;7.55;;;4.10;76.60;;;;;;5035167;28;20676;-72
2021/12/10 01:46:13;;;;;;;25.10;7.70;;;4.00;78.30;;;;;;5029955;28;20642;-71
2021/12/10 01:48:44;;;;;;;20.45;6.97;;;4.00;76.40;;;;;;5029375;28;20697;-72
2021/12/10 01:51:12;;;;;;;13.95;7.47;;;4.00;77.80;;;;;;5035318;28;20176;-71
2021/12/10 01:53:40;;;;;;;15.13;6.50;;;3.90;77.30;;;;;;5034933;28;20179;-71
2021/12/10 01:56:11;;;;;;;10.52;5.78;;;3.90;77.20;;;;;;5035034;28;20182;-71
2021/12/10 01:58:37;;;;;;;11.40;5.63;;;3.90;77.40;;;;;;5033636;28;20297;-71
2021/12/10 02:01:09;;;;;;;18.75;7.07;;;3.90;75.70;;;;;;5034991;28;20175;-71
2021/12/10 02:03:35;;;;;;;15.88;6.30;;;3.90;75.30;;;;;;5034096;28;20230;-71
2021/12/10 02:06:01;;;;;;;10.00;5.55;;;3.80;76.50;;;;;;5034543;28;20430;-71
2021/12/10 02:08:27;;;;;;;8.02;4.68;;;3.90;76.00;;;;;;5037324;28;20207;-69
2021/12/10 02:10:53;;;;;;;7.20;4.77;;;3.90;72.50;;;;;;5038666;28;20262;-72
2021/12/10 02:13:18;;;;;;;10.70;5.77;;;4.00;73.00;;;;;;5035021;28;20625;-71
2021/12/10 02:15:44;;;;;;;17.97;5.00;;;4.00;73.10;;;;;;5034945;28;20179;-70
2021/12/10 02:18:12;;;;;;;9.03;5.57;;;4.00;73.20;;;;;;5034141;28;20184;-70
2021/12/10 02:20:52;;;;;;;10.98;5.93;;;4.00;74.00;;;;;;5034651;28;20183;-69
2021/12/10 02:23:19;;;;;;;10.73;5.28;;;3.80;76.80;;;;;;5034633;28;20536;-70
2021/12/10 02:25:46;;;;;;;8.93;5.80;;;3.80;76.50;;;;;;5033590;28;20191;-71
2021/12/10 02:28:13;;;;;;;8.20;5.70;;;3.80;78.00;;;;;;5034413;28;20203;-72
2021/12/10 02:30:41;;;;;;;13.15;7.32;;;3.60;81.20;;;;;;5033892;28;20229;-70
2021/12/10 02:33:08;;;;;;;10.93;5.60;;;3.60;83.30;;;;;;5033179;28;20271;-71
2021/12/10 02:35:34;;;;;;;15.00;6.28;;;3.50;83.60;;;;;;5034291;28;20183;-71
2021/12/10 02:38:00;;;;;;;12.75;5.68;;;3.60;83.40;;;;;;5034371;28;20184;-71
2021/12/10 02:40:28;;;;;;;10.33;6.47;;;3.60;82.90;;;;;;5035094;28;20222;-72
2021/12/10 02:42:57;;;;;;;10.75;6.20;;;3.50;84.10;;;;;;5034744;28;20187;-72
2021/12/10 02:45:25;;;;;;;17.80;5.57;;;3.50;84.80;;;;;;5037205;28;20641;-71
2021/12/10 02:47:51;;;;;;;12.57;5.60;;;3.50;84.10;;;;;;5022180;28;20189;-71
2021/12/10 02:50:20;;;;;;;9.82;6.30;;;3.50;82.90;;;;;;5014998;28;20188;-71
2021/12/10 02:52:46;;;;;;;10.05;6.07;;;3.40;83.70;;;;;;5014411;28;20172;-71
2021/12/10 02:55:15;;;;;;;9.70;5.90;;;3.50;84.20;;;;;;5014592;28;20204;-70
2021/12/10 02:57:43;;;;;;;10.15;5.50;;;3.50;82.30;;;;;;5028357;28;20179;-70
2021/12/10 03:00:12;;;;;;;16.63;6.43;;;3.40;83.80;;;;;;5033675;28;20223;-71
2021/12/10 03:02:38;;;;;;;15.23;6.07;;;3.40;79.70;;;;;;5033628;28;20183;-71
2021/12/10 03:05:07;;;;;;;13.97;5.57;;;3.40;80.00;;;;;;5033580;28;20188;-71
2021/12/10 03:07:34;;;;;;;10.57;5.22;;;3.40;79.00;;;;;;5033849;28;20172;-71
2021/12/10 03:10:00;;;;;;;12.85;4.40;;;3.40;78.00;;;;;;5033295;28;20211;-69
2021/12/10 03:12:26;;;;;;;13.57;5.22;;;3.50;76.40;;;;;;5029278;28;20179;-70
2021/12/10 03:14:54;;;;;;;9.93;4.20;;;3.50;76.00;;;;;;5033715;28;20168;-70
2021/12/10 03:17:26;;;;;;;7.47;3.65;;;3.50;75.90;;;;;;5032189;28;20210;-71
2021/12/10 03:19:53;;;;;;;6.43;3.72;;;3.50;75.70;;;;;;5033185;28;20571;-71
2021/12/10 03:22:19;;;;;;;10.13;4.70;;;3.50;74.20;;;;;;5033503;28;20178;-71
2021/12/10 03:24:45;;;;;;;10.23;4.68;;;3.50;72.30;;;;;;5033446;28;20184;-71
2021/12/10 03:27:12;;;;;;;18.10;4.35;;;3.60;71.40;;;;;;5033805;28;20663;-69
2021/12/10 03:29:40;;;;;;;5.43;3.42;;;3.50;71.90;;;;;;5032756;28;20215;-72
2021/12/10 03:32:10;;;;;;;6.57;3.38;;;3.50;71.30;;;;;;5033929;28;20172;-71
2021/12/10 03:34:37;;;;;;;8.13;3.20;;;3.50;71.20;;;;;;5032862;28;20191;-70
2021/12/10 03:37:05;;;;;;;11.13;3.53;;;3.50;71.70;;;;;;5032975;28;20164;-71
2021/12/10 03:39:31;;;;;;;21.85;3.72;;;3.50;71.00;;;;;;5032528;28;20235;-70
2021/12/10 03:41:58;;;;;;;10.03;3.40;;;3.50;70.50;;;;;;5032335;28;20679;-69
2021/12/10 03:44:25;;;;;;;7.35;3.40;;;3.50;71.30;;;;;;5032704;28;20411;-71
2021/12/10 03:46:53;;;;;;;4.90;2.70;;;3.50;69.20;;;;;;5025131;28;20211;-70
2021/12/10 03:49:19;;;;;;;9.43;2.70;;;3.60;67.40;;;;;;5025773;28;20258;-69
2021/12/10 03:51:45;;;;;;;9.82;2.75;;;3.60;69.00;;;;;;5032907;28;20179;-70
2021/12/10 03:54:12;;;;;;;16.63;2.27;;;3.60;69.20;;;;;;5033078;28;20677;-70
2021/12/10 03:56:39;;;;;;;14.05;3.50;;;3.50;69.20;;;;;;5032389;28;20251;-71
2021/12/10 03:59:11;;;;;;;9.02;2.50;;;3.50;68.80;;;;;;5047495;28;20231;-71
2021/12/10 04:01:42;;;;;;;5.22;3.03;;;3.50;68.10;;;;;;5032433;28;20179;-70
2021/12/10 04:04:13;;;;;;;11.95;2.58;;;3.50;68.80;;;;;;5033105;28;20532;-71
2021/12/10 04:06:39;;;;;;;9.38;2.75;;;3.50;66.90;;;;;;5032828;28;20233;-70
2021/12/10 04:09:06;;;;;;;6.33;2.53;;;3.60;67.50;;;;;;5031938;28;20685;-72
2021/12/10 04:11:32;;;;;;;7.15;2.53;;;3.60;66.60;;;;;;5012653;28;20408;-71
2021/12/10 04:13:58;;;;;;;5.68;2.75;;;3.60;66.00;;;;;;5012706;28;20227;-72
2021/12/10 04:16:27;;;;;;;7.75;3.13;;;3.60;65.80;;;;;;5014867;28;20180;-71
2021/12/10 04:18:59;;;;;;;6.60;2.20;;;3.50;65.80;;;;;;5031774;28;20243;-71
2021/12/10 04:21:26;;;;;;;7.32;2.88;;;3.50;65.30;;;;;;5032243;28;20186;-71
2021/12/10 04:23:52;;;;;;;12.90;2.03;;;3.60;64.50;;;;;;5032268;28;20187;-71
2021/12/10 04:26:21;;;;;;;7.40;2.80;;;3.60;64.90;;;;;;5032086;28;20215;-71
2021/12/10 04:28:47;;;;;;;10.90;2.50;;;3.60;64.50;;;;;;5030612;28;20219;-70
2021/12/10 04:31:13;;;;;;;15.82;2.13;;;3.60;65.20;;;;;;5032079;28;20174;-71
2021/12/10 04:33:39;;;;;;;5.72;2.08;;;3.60;64.30;;;;;;5032546;28;20659;-71
2021/12/10 04:36:07;;;;;;;8.88;2.58;;;3.70;63.90;;;;;;5032280;28;20186;-70
2021/12/10 04:38:33;;;;;;;4.88;2.92;;;3.70;63.10;;;;;;5017036;28;20246;-70
2021/12/10 04:41:03;;;;;;;9.60;2.30;;;3.70;63.30;;;;;;5031484;28;20234;-70
2021/12/10 04:43:30;;;;;;;4.13;2.22;;;3.80;61.90;;;;;;5031467;28;20182;-71
2021/12/10 04:45:57;;;;;;;10.55;2.28;;;3.80;61.30;;;;;;5032015;28;20255;-71
2021/12/10 04:48:25;;;;;;;14.43;2.58;;;3.90;61.40;;;;;;5025471;28;20227;-71
2021/12/10 04:50:51;;;;;;;4.80;2.30;;;3.80;62.30;;;;;;5031682;28;20569;-71
2021/12/10 04:53:17;;;;;;;1.80;1.70;;;3.80;61.40;;;;;;5031793;28;20263;-71
2021/12/10 04:55:44;;;;;;;7.30;1.83;;;3.80;62.00;;;;;;5039347;28;20226;-71
2021/12/10 04:58:11;;;;;;;9.35;2.05;;;3.70;62.00;;;;;;5041025;28;20798;-71
2021/12/10 05:00:43;;;;;;;12.02;1.92;;;3.90;61.90;;;;;;5038328;28;20194;-70
2021/12/10 05:03:09;;;;;;;5.20;1.55;;;3.80;60.30;;;;;;5038488;28;20624;-71
2021/12/10 05:05:37;;;;;;;4.10;1.90;;;3.80;60.90;;;;;;5038356;28;20180;-71
2021/12/10 05:08:05;;;;;;;11.95;2.25;;;3.70;61.50;;;;;;5038286;28;20619;-71
2021/12/10 05:10:30;;;;;;;6.43;2.00;;;3.80;61.80;;;;;;5038671;28;20237;-72
2021/12/10 05:12:56;;;;;;;22.33;2.43;;;3.80;61.50;;;;;;5039817;28;20258;-72
2021/12/10 05:15:25;;;;;;;5.95;1.90;;;3.80;62.10;;;;;;5038854;28;20698;-70
2021/12/10 05:17:51;;;;;;;5.70;1.95;;;3.70;60.60;;;;;;5039546;28;20187;-71
2021/12/10 05:20:23;;;;;;;4.18;1.90;;;3.70;60.70;;;;;;5039008;28;20208;-71
2021/12/10 05:22:49;;;;;;;8.75;2.33;;;3.80;59.90;;;;;;5018738;28;20176;-70
2021/12/10 05:25:16;;;;;;;9.05;2.25;;;3.70;60.30;;;;;;5018500;28;20168;-70
2021/12/10 05:27:43;;;;;;;11.57;2.88;;;3.80;60.00;;;;;;5018263;28;20187;-70
2021/12/10 05:30:11;;;;;;;5.97;2.58;;;3.70;60.20;;;;;;5018838;28;20195;-71
2021/12/10 05:32:37;;;;;;;7.22;2.70;;;3.70;60.80;;;;;;5030714;28;20784;-71
2021/12/10 05:35:05;;;;;;;4.20;2.27;;;3.70;60.40;;;;;;5038315;28;20221;-71
2021/12/10 05:37:31;;;;;;;10.02;2.42;;;3.70;60.40;;;;;;5037960;28;20227;-70
2021/12/10 05:39:56;;;;;;;5.57;2.30;;;3.70;60.40;;;;;;5038246;28;20188;-71
2021/12/10 05:42:22;;;;;;;12.00;3.10;;;3.70;59.90;;;;;;5038437;28;20518;-70
2021/12/10 05:44:48;;;;;;;6.47;2.00;;;3.70;59.90;;;;;;5038334;28;20184;-71
2021/12/10 05:47:13;;;;;;;26.07;3.30;;;3.70;61.10;;;;;;5029314;28;20651;-71
2021/12/10 05:49:39;;;;;;;4.50;3.10;;;3.70;59.90;;;;;;5028611;28;20285;-68
2021/12/10 05:52:07;;;;;;;10.65;2.28;;;3.70;59.90;;;;;;5037813;28;20791;-72
2021/12/10 05:54:33;;;;;;;13.07;2.58;;;3.70;58.20;;;;;;5037764;28;20191;-72
2021/12/10 05:56:59;;;;;;;17.00;3.05;;;3.70;58.70;;;;;;5037736;28;20682;-71
2021/12/10 05:59:25;;;;;;;12.47;2.90;;;3.70;58.90;;;;;;5037910;28;20221;-71
2021/12/10 06:01:50;;;;;;;9.17;2.93;;;3.70;58.70;;;;;;5037981;28;20414;-71
2021/12/10 06:04:22;;;;;;;8.80;2.77;;;3.70;58.50;;;;;;5023069;28;20271;-70
2021/12/10 06:06:48;;;;;;;13.93;3.10;;;3.60;59.90;;;;;;5014935;28;20598;-70
2021/12/10 06:09:13;;;;;;;6.33;2.67;;;3.60;60.80;;;;;;5015287;28;20208;-70
2021/12/10 06:11:39;;;;;;;10.33;2.80;;;3.60;60.50;;;;;;5029757;28;20607;-71
2021/12/10 06:14:06;;;;;;;8.27;2.80;;;3.60;60.30;;;;;;5033468;28;20217;-72
2021/12/10 06:16:32;;;;;;;24.13;3.50;;;3.60;59.60;;;;;;5034470;28;20203;-71
2021/12/10 06:18:58;;;;;;;12.80;2.67;;;3.60;59.90;;;;;;5034309;28;20688;-72
2021/12/10 06:21:23;;;;;;;11.10;2.87;;;3.60;60.30;;;;;;5034328;28;20187;-71
2021/12/10 06:23:49;;;;;;;12.63;3.50;;;3.60;59.30;;;;;;5032091;28;20514;-70
2021/12/10 06:26:16;;;;;;;2.93;2.40;;;3.60;58.60;;;;;;5033903;28;20282;-71
2021/12/10 06:28:44;;;;;;;7.82;2.95;;;3.60;59.80;;;;;;5031806;28;20242;-74
2021/12/10 06:31:12;;;;;;;5.53;2.00;;;3.60;60.10;;;;;;5034028;28;20168;-73
2021/12/10 06:33:38;;;;;;;9.57;3.17;;;3.60;59.00;;;;;;5032428;28;20176;-73
2021/12/10 06:36:05;;;;;;;15.10;3.40;;;3.60;58.90;;;;;;5034027;28;20183;-73
2021/12/10 06:38:31;;;;;;;10.77;3.47;;;3.60;58.50;;;;;;5015841;28;20272;-74
2021/12/10 06:40:57;;;;;;;12.38;2.88;;;3.70;57.80;;;;;;5013656;28;20185;-73
2021/12/10 06:43:23;;;;;;;16.67;3.90;;;3.60;58.60;;;;;;5027904;28;20276;-74
2021/12/10 06:45:54;;;;;;;10.33;3.40;;;3.60;58.50;;;;;;5030983;28;20228;-74
2021/12/10 06:48:23;;;;;;;7.93;3.25;;;3.60;58.70;;;;;;5020000;28;20204;-74
2021/12/10 06:50:52;;;;;;;11.82;3.13;;;3.60;58.50;;;;;;5014222;28;20199;-73
2021/12/10 06:53:19;;;;;;;4.72;2.90;;;3.70;58.00;;;;;;5014211;28;20264;-73
2021/12/10 06:55:46;;;;;;;10.80;3.20;;;3.60;57.00;;;;;;5020953;28;20265;-73
2021/12/10 06:58:12;;;;;;;5.07;2.47;;;3.70;57.40;;;;;;5024684;28;20612;-73
2021/12/10 07:00:47;;;;;;;4.97;2.60;;;3.70;57.40;;;;;;5026073;28;20191;-73
2021/12/10 07:03:17;;;;;;;10.95;3.10;;;3.70;56.20;;;;;;5021324;28;20841;-73
2021/12/10 07:05:44;;;;;;;8.20;3.65;;;3.70;56.60;;;;;;5025474;28;20184;-74
2021/12/10 07:08:11;;;;;;;7.18;2.50;;;3.60;57.60;;;;;;5032256;28;20657;-72
2021/12/10 07:10:37;;;;;;;7.95;2.85;;;3.60;57.10;;;;;;5033705;28;20184;-73
2021/12/10 07:13:06;;;;;;;6.53;2.47;;;3.60;57.60;;;;;;5025711;28;20187;-73
2021/12/10 07:15:33;;;;;;;9.38;3.85;;;3.70;57.00;;;;;;5021927;28;20176;-73
2021/12/10 07:18:00;;;;;;;8.68;2.90;;;3.60;56.70;;;;;;5024229;28;20279;-73
2021/12/10 07:20:25;;;;;;;6.25;2.97;;;3.70;56.40;;;;;;5033371;28;20179;-73
2021/12/10 07:22:52;;;;;;;11.73;4.27;;;3.70;55.60;;;;;;5033408;28;20191;-73
2021/12/10 07:25:22;;;;;;;15.20;3.10;;;3.70;55.40;;;;;;5033752;28;20657;-73
2021/12/10 07:27:49;;;;;;;6.05;2.58;;;3.60;55.20;;;;;;5030862;28;20334;-73
2021/12/10 07:30:17;;;;;;;12.32;3.00;;;3.70;55.30;;;;;;5025904;28;20196;-73
2021/12/10 07:32:43;;;;;;;9.07;2.38;;;3.60;56.10;;;;;;5033237;28;20183;-74
2021/12/10 07:35:09;;;;;;;9.53;2.13;;;3.60;55.10;;;;;;5033788;28;20184;-75
2021/12/10 07:37:36;;;;;;;12.80;2.70;;;3.70;55.40;;;;;;5033144;28;20600;-73
2021/12/10 07:40:05;;;;;;;12.85;2.53;;;3.70;54.30;;;;;;5031028;28;20275;-72
2021/12/10 07:42:30;;;;;;;8.95;2.88;;;3.70;53.70;;;;;;5030934;28;20226;-74
2021/12/10 07:44:56;;;;;;;10.20;2.80;;;3.70;53.40;;;;;;5021091;28;20578;-74
2021/12/10 07:47:23;;;;;;;4.90;1.97;;;3.80;53.00;;;;;;5025986;28;20190;-77
2021/12/10 07:49:49;;;;;;;16.52;2.92;;;3.90;52.80;;;;;;5023704;28;20505;-72
2021/12/10 07:52:21;;;;;;;7.63;2.70;;;3.90;52.50;;;;;;5035672;28;20180;-74
2021/12/10 07:54:48;;;;;;;7.90;2.00;;;3.80;52.10;;;;;;5029886;28;20799;-74
2021/12/10 07:57:19;;;;;;;5.53;2.22;;;3.90;52.60;;;;;;5027819;28;20326;-74
2021/12/10 07:59:45;;;;;;;12.52;3.30;;;4.00;50.80;;;;;;5042578;28;20267;-73
2021/12/10 08:02:11;;;;;;;10.65;2.53;;;4.10;50.90;;;;;;5039797;28;20225;-73
2021/12/10 08:04:37;;;;;;;9.80;2.03;;;4.10;50.90;;;;;;5030944;28;20211;-74
2021/12/10 08:07:05;;;;;;;7.50;2.05;;;4.10;49.60;;;;;;5043376;28;20473;-74
2021/12/10 08:09:30;;;;;;;8.40;2.60;;;4.00;50.90;;;;;;5050910;28;20422;-75
2021/12/10 08:11:56;;;;;;;13.85;3.00;;;4.10;50.20;;;;;;5049630;28;20379;-74
2021/12/10 08:14:22;;;;;;;11.30;3.23;;;4.10;49.90;;;;;;5045154;28;20404;-74
2021/12/10 08:16:47;;;;;;;14.20;3.50;;;4.30;48.50;;;;;;5045286;28;20426;-76
2021/12/10 08:19:13;;;;;;;14.30;3.07;;;4.30;48.90;;;;;;5029657;28;20448;-74
2021/12/10 08:21:41;;;;;;;10.07;2.83;;;4.30;48.70;;;;;;5023511;28;20431;-75
2021/12/10 08:24:06;;;;;;;8.70;3.42;;;4.20;48.30;;;;;;5029068;28;20403;-76
2021/12/10 08:26:32;;;;;;;11.20;2.80;;;4.50;48.20;;;;;;5028773;28;20415;-75
2021/12/10 08:28:58;;;;;;;13.20;3.05;;;4.50;47.90;;;;;;5025900;28;20421;-74
2021/12/10 08:31:24;;;;;;;12.00;2.90;;;4.40;47.80;;;;;;5021228;28;20453;-73
2021/12/10 08:33:50;;;;;;;17.42;3.60;;;4.40;48.10;;;;;;5024955;28;20401;-71
2021/12/10 08:36:18;;;;;;;11.23;3.03;;;4.40;48.40;;;;;;5012826;28;20472;-75
2021/12/10 08:38:45;;;;;;;9.63;2.97;;;4.40;48.10;;;;;;5027058;28;20892;-74
2021/12/10 08:41:16;;;;;;;16.17;3.50;;;4.40;48.30;;;;;;5025968;28;20398;-74
2021/12/10 08:43:43;;;;;;;14.95;3.40;;;4.50;48.00;;;;;;5026384;28;20410;-74
2021/12/10 08:46:10;;;;;;;11.90;3.83;;;4.40;48.10;;;;;;5024740;28;20410;-75
2021/12/10 08:48:36;;;;;;;9.30;3.10;;;4.50;47.10;;;;;;5027405;28;20419;-75
2021/12/10 08:51:09;;;;;;;9.23;3.00;;;4.40;47.10;;;;;;5026333;28;20388;-76
2021/12/10 08:53:36;;;;;;;8.38;2.88;;;4.40;48.10;;;;;;5020017;28;20421;-73
2021/12/10 08:56:02;;;;;;;10.20;3.17;;;4.70;46.40;;;;;;5019445;28;20401;-74
2021/12/10 08:58:28;;;;;;;8.48;3.10;;;4.60;45.20;;;;;;5028916;28;20395;-73
2021/12/10 09:01:07;;;;;;;12.23;3.07;;;4.60;45.80;;;;;;5030939;28;20399;-74
2021/12/10 09:03:34;;;;;;;9.83;2.83;;;4.70;45.30;;;;;;5030121;28;20411;-74
2021/12/10 09:06:01;;;;;;;8.30;2.83;;;4.90;44.00;;;;;;5031042;28;20413;-73
2021/12/10 09:08:26;;;;;;;9.95;3.17;;;4.90;44.30;;;;;;5030750;28;20398;-73
2021/12/10 09:10:52;;;;;;;6.00;2.78;;;4.90;43.10;;;;;;5024602;28;20407;-73
2021/12/10 09:13:20;;;;;;;11.90;3.37;;;4.90;43.20;;;;;;5025958;28;20853;-73
2021/12/10 09:15:50;;;;;;;7.10;3.28;;;5.00;42.80;;;;;;5025549;28;20410;-73
2021/12/10 09:18:16;;;;;;;11.20;3.30;;;5.00;42.40;;;;;;5018775;28;20907;-74
2021/12/10 09:20:47;;;;;;;8.98;3.08;;;5.10;40.60;;;;;;5026701;28;20459;-73
2021/12/10 09:23:17;;;;;;;10.38;4.25;;;5.20;40.60;;;;;;5027679;28;20403;-74
2021/12/10 09:25:44;;;;;;;9.10;3.30;;;5.30;40.70;;;;;;5027910;28;20406;-73
2021/12/10 09:28:10;;;;;;;7.63;3.35;;;5.10;40.60;;;;;;5024852;28;20418;-72
2021/12/10 09:30:38;;;;;;;8.18;2.90;;;5.00;40.50;;;;;;5020596;28;20783;-73
2021/12/10 09:33:05;;;;;;;9.90;2.80;;;5.00;40.90;;;;;;5028653;28;20426;-73
2021/12/10 09:35:33;;;;;;;6.75;3.15;;;5.00;40.40;;;;;;5023612;28;20404;-70
2021/12/10 09:37:59;;;;;;;8.75;2.95;;;5.00;40.20;;;;;;5029759;28;20399;-71
2021/12/10 09:40:31;;;;;;;11.75;3.38;;;5.30;39.70;;;;;;5029915;28;20387;-71
2021/12/10 09:42:57;;;;;;;7.68;3.63;;;5.20;39.40;;;;;;5034143;28;20386;-70
2021/12/10 09:45:28;;;;;;;8.10;3.83;;;5.40;40.00;;;;;;5033278;28;20484;-71
2021/12/10 09:47:54;;;;;;;8.38;2.60;;;5.30;39.10;;;;;;5029854;28;20938;-76
2021/12/10 09:50:23;;;;;;;8.23;2.93;;;5.40;38.50;;;;;;5031681;28;20399;-75
2021/12/10 09:52:51;;;;;;;11.43;3.30;;;5.40;37.70;;;;;;5030555;28;20907;-74
2021/12/10 09:55:18;;;;;;;9.05;3.33;;;5.30;37.90;;;;;;5024120;28;20406;-74
2021/12/10 09:57:46;;;;;;;10.68;3.53;;;5.40;37.70;;;;;;5033128;28;20822;-76
2021/12/10 10:00:23;;;;;;;8.00;3.03;;;5.40;37.20;;;;;;5033785;28;20406;-74
2021/12/10 10:02:49;;;;;;;8.10;3.15;;;5.60;37.40;;;;;;5031747;28;20391;-75
2021/12/10 10:05:15;;;;;;;7.65;3.40;;;5.60;36.90;;;;;;5037045;28;20391;-74
2021/12/10 10:07:41;;;;;;;9.52;3.10;;;5.50;37.00;;;;;;5030358;28;20462;-73
2021/12/10 10:10:14;;;;;;;7.95;3.42;;;5.40;37.90;;;;;;5026236;28;20420;-74
2021/12/10 10:12:43;;;;;;;7.95;3.45;;;5.50;37.80;;;;;;5021433;28;20472;-73
2021/12/10 10:15:13;;;;;;;9.90;3.60;;;5.20;37.20;;;;;;5028440;28;20724;-76
2021/12/10 10:17:39;;;;;;;12.53;4.00;;;5.40;37.80;;;;;;5030523;28;20951;-77
2021/12/10 10:20:06;;;;;;;8.38;3.63;;;5.40;37.40;;;;;;5026251;28;20405;-75
2021/12/10 10:22:32;;;;;;;8.23;3.50;;;5.30;37.20;;;;;;5035453;28;20401;-77
2021/12/10 10:24:58;;;;;;;12.00;4.27;;;5.30;37.30;;;;;;5026458;28;20879;-75
2021/12/10 10:27:30;;;;;;;9.52;3.35;;;5.30;37.30;;;;;;5024319;28;20430;-77
2021/12/10 10:30:01;;;;;;;12.02;3.55;;;5.40;36.80;;;;;;5015902;28;20396;-77
2021/12/10 10:32:30;;;;;;;9.48;3.50;;;5.60;36.40;;;;;;5028901;28;20391;-74
2021/12/10 10:35:01;;;;;;;11.90;3.25;;;5.60;36.00;;;;;;5032229;28;20419;-74
2021/12/10 10:37:28;;;;;;;8.25;3.03;;;5.70;36.40;;;;;;5033931;28;20426;-74
2021/12/10 10:39:54;;;;;;;14.73;3.70;;;5.80;35.80;;;;;;5034685;28;20395;-74
2021/12/10 10:42:24;;;;;;;9.32;3.13;;;5.80;35.90;;;;;;5028518;28;20757;-73
2021/12/10 10:44:51;;;;;;;11.60;3.35;;;6.00;34.60;;;;;;5028686;28;20390;-73
2021/12/10 10:47:21;;;;;;;10.30;3.00;;;6.00;34.20;;;;;;5030114;28;20475;-73
2021/12/10 10:49:51;;;;;;;9.27;3.00;;;6.10;34.40;;;;;;5025042;28;20516;-74
2021/12/10 10:52:33;;;;;;;6.90;3.00;;;6.20;33.30;;;;;;5032713;28;20900;-74
2021/12/10 10:55:01;;;;;;;9.73;3.00;;;6.30;33.40;;;;;;5031529;28;20950;-73
2021/12/10 10:57:31;;;;;;;10.77;3.10;;;6.20;33.00;;;;;;5027929;28;20476;-74
2021/12/10 11:00:09;;;;;;;7.13;2.60;;;6.30;32.50;;;;;;5024395;28;20446;-73
2021/12/10 11:02:48;;;;;;;7.93;2.80;;;6.10;32.60;;;;;;5021394;28;20409;-73
2021/12/10 11:05:14;;;;;;;10.73;2.90;;;6.30;32.30;;;;;;5029688;28;20428;-73
2021/12/10 11:07:49;;;;;;;8.75;2.70;;;6.40;32.40;;;;;;5024635;28;20946;-74
2021/12/10 11:10:34;;;;;;;7.32;2.95;;;6.50;32.30;;;;;;5027467;28;20403;-74
2021/12/10 11:13:20;;;;;;;11.23;3.00;;;6.50;31.50;;;;;;5025193;28;20396;-74
2021/12/10 11:15:58;;;;;;;7.57;3.33;;;6.20;31.60;;;;;;5024806;28;20702;-73
2021/12/10 11:18:24;;;;;;;7.38;2.63;;;6.20;32.00;;;;;;5032715;28;20391;-74
2021/12/10 11:20:50;;;;;;;9.45;2.65;;;6.20;32.20;;;;;;5030062;28;20407;-74
2021/12/10 11:23:18;;;;;;;7.30;3.08;;;6.30;31.20;;;;;;5024399;28;20427;-73
2021/12/10 11:25:49;;;;;;;10.05;2.42;;;6.40;31.90;;;;;;5034149;28;20399;-74
2021/12/10 11:28:20;;;;;;;8.10;2.50;;;6.60;31.00;;;;;;5032820;28;20411;-75
2021/12/10 11:30:50;;;;;;;11.70;2.50;;;6.70;30.20;;;;;;5023874;28;20482;-75
2021/12/10 11:33:22;;;;;;;7.57;2.42;;;6.80;29.60;;;;;;5050903;28;20402;-75
2021/12/10 11:35:56;;;;;;;6.93;2.60;;;6.50;30.00;;;;;;5028407;28;20403;-75
2021/12/10 11:38:28;;;;;;;8.05;2.50;;;6.40;30.50;;;;;;5028970;28;20423;-75
2021/12/10 11:41:02;;;;;;;10.80;2.50;;;6.10;31.50;;;;;;5027422;28;20450;-75
2021/12/10 11:48:50;;;;;;;10.10;2.30;;;6.40;30.80;;;;;;5028792;28;20892;-74
2021/12/10 11:51:29;;;;;;;9.80;3.08;;;6.60;29.80;;;;;;5036287;28;20406;-74
2021/12/10 11:54:01;;;;;;;5.85;2.40;;;6.50;30.30;;;;;;5025977;28;20399;-73
2021/12/10 11:56:36;;;;;;;10.60;3.00;;;6.40;30.60;;;;;;5022956;28;20403;-75
2021/12/10 11:59:10;;;;;;;8.25;2.70;;;6.50;30.30;;;;;;5031302;28;20410;-74
2021/12/10 12:02:05;;;;;;;5.65;2.28;;;6.40;30.40;;;;;;5030675;28;20518;-73
2021/12/10 12:04:44;;;;;;;5.40;2.90;;;6.40;30.10;;;;;;5028145;28;20837;-74
2021/12/10 12:07:41;;;;;;;6.10;2.50;;;6.30;30.20;;;;;;5031110;28;20394;-74
2021/12/10 12:10:31;;;;;;;8.57;3.10;;;6.30;29.90;;;;;;5030516;28;20410;-73
2021/12/10 12:15:55;;;;;;;8.23;2.50;;;6.50;29.20;;;;;;5031040;28;20583;-73
2021/12/10 12:18:29;;;;;;;8.20;2.55;;;6.30;30.10;;;;;;5032238;28;20760;-76
2021/12/10 12:26:36;;;;;;;6.22;2.70;;;6.70;29.50;;;;;;5020408;28;20424;-74
2021/12/10 12:29:09;;;;;;;5.07;2.22;;;6.50;29.30;;;;;;5022836;28;20415;-74
2021/12/10 12:31:57;;;;;;;7.03;2.00;;;6.40;29.80;;;;;;5031424;28;20406;-72
2021/12/10 12:34:27;;;;;;;8.23;2.50;;;6.40;29.40;;;;;;5024668;28;20404;-74
2021/12/10 12:37:01;;;;;;;8.18;2.78;;;6.40;29.60;;;;;;5020182;28;20453;-74
2021/12/10 12:39:29;;;;;;;7.13;2.70;;;6.60;29.60;;;;;;5022225;28;20506;-74
2021/12/10 12:41:57;;;;;;;9.88;2.55;;;6.60;29.30;;;;;;5027739;28;20962;-73
2021/12/10 12:44:34;;;;;;;7.53;2.50;;;6.60;28.80;;;;;;5020193;28;20465;-74
2021/12/10 12:47:06;;;;;;;8.00;3.10;;;6.60;28.90;;;;;;5026623;28;20834;-74
2021/12/10 12:49:53;;;;;;;9.02;2.60;;;6.60;28.80;;;;;;5028838;28;20445;-75
2021/12/10 12:52:39;;;;;;;6.13;2.60;;;6.40;29.60;;;;;;5020014;28;20899;-73
2021/12/10 12:55:29;;;;;;;10.13;3.03;;;6.50;29.10;;;;;;5016650;28;20400;-73
2021/12/10 12:57:57;;;;;;;5.25;2.70;;;6.60;29.50;;;;;;5022504;28;20393;-72
2021/12/10 13:00:42;;;;;;;9.83;2.63;;;6.60;29.10;;;;;;5029131;28;20883;-71
2021/12/10 13:03:20;;;;;;;7.90;2.17;;;6.60;28.90;;;;;;5029948;28;20464;-72
2021/12/10 13:06:01;;;;;;;9.55;2.42;;;6.60;29.60;;;;;;5016487;28;20383;-74
2021/12/10 13:08:31;;;;;;;5.30;2.67;;;6.60;28.80;;;;;;5029496;28;20494;-72
2021/12/10 13:11:08;;;;;;;6.55;2.70;;;6.30;29.80;;;;;;5030246;28;20476;-73
2021/12/10 13:13:45;;;;;;;8.38;3.17;;;6.70;29.30;;;;;;5018115;28;20406;-71
2021/12/10 13:16:12;;;;;;;9.13;3.35;;;6.80;29.90;;;;;;5029980;28;20540;-71
2021/12/10 13:18:42;;;;;;;6.68;2.70;;;6.80;29.00;;;;;;5025807;28;20911;-71
2021/12/10 13:21:10;;;;;;;6.85;2.50;;;6.70;28.90;;;;;;5026247;28;20954;-72
2021/12/10 13:23:37;;;;;;;7.05;2.70;;;6.70;28.50;;;;;;5033466;28;20394;-72
2021/12/10 13:26:06;;;;;;;9.40;2.75;;;6.70;29.50;;;;;;5034421;28;20903;-73
2021/12/10 13:28:32;;;;;;;9.05;2.67;;;6.70;29.40;;;;;;5034908;28;20407;-72